Time,TemperatureF,DewpointF,PressureIn,WindDirection,WindDirectionDegrees,WindSpeedMPH,WindSpeedGustMPH,Humidity,HourlyPrecipIn,Conditions,Clouds,dailyrainin,SolarRadiationWatts/m^2,SoftwareType,DateUTC
2013-01-25 00:21:00,35.0,21.0,-100.00,South,188,10.0,17.0,56,0.00,,,0.00,0.000000,,2013-01-25 09:21:00,
2013-01-25 00:31:00,35.0,21.0,-100.00,South,188,10.0,17.0,56,0.00,,,0.00,0.000000,,2013-01-25 09:31:00,
2013-01-25 00:41:00,35.0,21.0,-100.00,South,188,10.0,17.0,56,0.00,,,0.00,0.000000,,2013-01-25 09:41:00,
2013-01-25 00:51:00,35.0,21.0,-100.00,South,188,10.0,17.0,56,0.00,,,0.00,0.000000,,2013-01-25 09:51:00,
2013-01-25 01:21:00,34.0,21.0,-100.00,SSW,193,11.0,17.0,58,0.00,,,0.00,0.000000,,2013-01-25 10:21:00,
2013-01-25 01:31:00,34.0,21.0,-100.00,SSW,193,11.0,17.0,58,0.00,,,0.00,0.000000,,2013-01-25 10:31:00,
2013-01-25 01:41:00,34.0,21.0,-100.00,SSW,193,11.0,17.0,58,0.00,,,0.00,0.000000,,2013-01-25 10:41:00,
2013-01-25 01:51:00,34.0,21.0,-100.00,SSW,193,11.0,17.0,58,0.00,,,0.00,0.000000,,2013-01-25 10:51:00,
2013-01-25 02:22:00,33.0,23.0,-100.00,SSW,194,13.0,21.0,65,0.00,,,0.00,0.000000,,2013-01-25 11:22:00,
2013-01-25 02:32:00,33.0,23.0,-100.00,SSW,194,13.0,21.0,65,0.00,,,0.00,0.000000,,2013-01-25 11:32:00,
2013-01-25 02:42:00,33.0,23.0,-100.00,SSW,194,13.0,21.0,65,0.00,,,0.00,0.000000,,2013-01-25 11:42:00,
2013-01-25 02:52:00,33.0,23.0,-100.00,SSW,194,13.0,21.0,65,0.00,,,0.00,0.000000,,2013-01-25 11:52:00,
2013-01-25 03:22:00,33.0,24.0,-100.00,SSW,197,10.0,18.0,69,0.00,,,0.00,0.000000,,2013-01-25 12:22:00,
2013-01-25 03:32:00,33.0,24.0,-100.00,SSW,197,10.0,18.0,69,0.00,,,0.00,0.000000,,2013-01-25 12:32:00,
2013-01-25 03:42:00,33.0,24.0,-100.00,SSW,197,10.0,18.0,69,0.00,,,0.00,0.000000,,2013-01-25 12:42:00,
2013-01-25 03:52:00,33.0,24.0,-100.00,SSW,197,10.0,18.0,69,0.00,,,0.00,0.000000,,2013-01-25 12:52:00,
2013-01-25 04:22:00,33.0,24.0,-100.00,SSW,198,10.0,18.0,70,0.00,,,0.00,0.000000,,2013-01-25 13:22:00,
2013-01-25 04:32:00,33.0,24.0,-100.00,SSW,198,10.0,18.0,70,0.00,,,0.00,0.000000,,2013-01-25 13:32:00,
2013-01-25 04:42:00,33.0,24.0,-100.00,SSW,198,10.0,18.0,70,0.00,,,0.00,0.000000,,2013-01-25 13:42:00,
2013-01-25 04:52:00,33.0,24.0,-100.00,SSW,198,10.0,18.0,70,0.00,,,0.00,0.000000,,2013-01-25 13:52:00,
2013-01-25 05:22:00,28.0,22.0,-100.00,North,4,5.0,17.0,79,0.00,,,0.00,0.000000,,2013-01-25 14:22:00,
2013-01-25 05:32:00,28.0,22.0,-100.00,North,4,5.0,17.0,79,0.00,,,0.00,0.000000,,2013-01-25 14:32:00,
2013-01-25 05:42:00,28.0,22.0,-100.00,North,4,5.0,17.0,79,0.00,,,0.00,0.000000,,2013-01-25 14:42:00,
2013-01-25 05:52:00,28.0,22.0,-100.00,North,4,5.0,17.0,79,0.00,,,0.00,0.000000,,2013-01-25 14:52:00,
2013-01-25 06:22:00,22.0,20.0,-100.00,North,7,5.0,13.0,91,0.00,,,0.00,0.000000,,2013-01-25 15:22:00,
2013-01-25 06:32:00,22.0,20.0,-100.00,North,7,5.0,13.0,91,0.00,,,0.00,0.000000,,2013-01-25 15:32:00,
2013-01-25 06:42:00,22.0,20.0,-100.00,North,7,5.0,13.0,91,0.00,,,0.00,0.000000,,2013-01-25 15:42:00,
2013-01-25 06:52:00,22.0,20.0,-100.00,North,7,5.0,13.0,91,0.00,,,0.00,0.000000,,2013-01-25 15:52:00,
2013-01-25 07:22:00,20.0,18.0,-100.00,North,10,7.0,21.0,90,0.00,,,0.00,0.000000,,2013-01-25 16:22:00,
2013-01-25 07:32:00,20.0,18.0,-100.00,North,10,7.0,21.0,90,0.00,,,0.00,0.000000,,2013-01-25 16:32:00,
2013-01-25 07:42:00,20.0,18.0,-100.00,North,10,7.0,21.0,90,0.00,,,0.00,0.000000,,2013-01-25 16:42:00,
2013-01-25 07:52:00,20.0,18.0,-100.00,North,10,7.0,21.0,90,0.00,,,0.00,0.000000,,2013-01-25 16:52:00,
2013-01-25 08:22:00,19.0,12.0,-100.00,NW,326,6.0,19.0,75,0.00,,,0.00,0.000000,,2013-01-25 17:22:00,
2013-01-25 08:32:00,19.0,12.0,-100.00,NW,326,6.0,19.0,75,0.00,,,0.00,0.000000,,2013-01-25 17:32:00,
2013-01-25 08:42:00,19.0,12.0,-100.00,NW,326,6.0,19.0,75,0.00,,,0.00,0.000000,,2013-01-25 17:42:00,
2013-01-25 08:52:00,19.0,12.0,-100.00,NW,326,6.0,19.0,75,0.00,,,0.00,0.000000,,2013-01-25 17:52:00,
2013-01-25 09:23:00,15.0,8.0,-100.00,NNE,18,4.0,12.0,72,0.00,,,0.00,0.000000,,2013-01-25 18:23:00,
2013-01-25 09:32:00,15.0,8.0,-100.00,NNE,18,4.0,12.0,72,0.00,,,0.00,0.000000,,2013-01-25 18:32:00,
2013-01-25 09:42:00,15.0,8.0,-100.00,NNE,18,4.0,12.0,72,0.00,,,0.00,0.000000,,2013-01-25 18:42:00,
2013-01-25 09:51:00,15.0,8.0,-100.00,NNE,18,4.0,12.0,72,0.00,,,0.00,0.000000,,2013-01-25 18:51:00,
2013-01-25 10:22:00,14.0,10.0,-100.00,NNE,19,5.0,12.0,84,0.00,,,0.00,2.000000,,2013-01-25 19:22:00,
2013-01-25 10:32:00,14.0,10.0,-100.00,NNE,19,5.0,12.0,84,0.00,,,0.00,2.000000,,2013-01-25 19:32:00,
2013-01-25 10:42:00,14.0,10.0,-100.00,NNE,19,5.0,12.0,84,0.00,,,0.00,2.000000,,2013-01-25 19:42:00,
2013-01-25 10:52:00,14.0,10.0,-100.00,NNE,19,5.0,12.0,84,0.00,,,0.00,2.000000,,2013-01-25 19:52:00,
2013-01-25 11:22:00,13.0,7.0,-100.00,North,9,6.0,13.0,77,0.00,,,0.00,17.000000,,2013-01-25 20:22:00,
2013-01-25 11:32:00,13.0,7.0,-100.00,North,9,6.0,13.0,77,0.00,,,0.00,17.000000,,2013-01-25 20:32:00,
2013-01-25 11:42:00,13.0,7.0,-100.00,North,9,6.0,13.0,77,0.00,,,0.00,17.000000,,2013-01-25 20:42:00,
2013-01-25 11:52:00,13.0,7.0,-100.00,North,9,6.0,13.0,77,0.00,,,0.00,17.000000,,2013-01-25 20:52:00,
2013-01-25 12:22:00,13.0,6.0,-100.00,North,10,4.0,11.0,74,0.00,,,0.00,46.000000,,2013-01-25 21:22:00,
2013-01-25 12:32:00,13.0,6.0,-100.00,North,10,4.0,11.0,74,0.00,,,0.00,46.000000,,2013-01-25 21:32:00,
2013-01-25 12:42:00,13.0,6.0,-100.00,North,10,4.0,11.0,74,0.00,,,0.00,46.000000,,2013-01-25 21:42:00,
2013-01-25 12:52:00,13.0,6.0,-100.00,North,10,4.0,11.0,74,0.00,,,0.00,46.000000,,2013-01-25 21:52:00,
2013-01-25 13:22:00,13.0,3.0,-100.00,NNE,21,5.0,10.0,65,0.00,,,0.00,88.000000,,2013-01-25 22:22:00,
2013-01-25 13:32:00,13.0,3.0,-100.00,NNE,21,5.0,10.0,65,0.00,,,0.00,88.000000,,2013-01-25 22:32:00,
2013-01-25 13:42:00,13.0,3.0,-100.00,NNE,21,5.0,10.0,65,0.00,,,0.00,88.000000,,2013-01-25 22:42:00,
2013-01-25 13:51:00,13.0,3.0,-100.00,NNE,21,5.0,10.0,65,0.00,,,0.00,88.000000,,2013-01-25 22:51:00,
2013-01-25 14:22:00,15.0,3.0,-100.00,North,7,5.0,11.0,59,0.00,,,0.00,144.000000,,2013-01-25 23:22:00,
2013-01-25 14:32:00,15.0,3.0,-100.00,North,7,5.0,11.0,59,0.00,,,0.00,144.000000,,2013-01-25 23:32:00,
2013-01-25 14:42:00,15.0,3.0,-100.00,North,7,5.0,11.0,59,0.00,,,0.00,144.000000,,2013-01-25 23:42:00,
2013-01-25 14:52:00,15.0,3.0,-100.00,North,7,5.0,11.0,59,0.00,,,0.00,144.000000,,2013-01-25 23:52:00,
2013-01-25 15:22:00,14.0,0.0,-100.00,NNE,13,6.0,11.0,54,0.00,,,0.00,132.000000,,2013-01-26 00:22:00,
2013-01-25 15:32:00,14.0,0.0,-100.00,NNE,13,6.0,11.0,54,0.00,,,0.00,132.000000,,2013-01-26 00:32:00,
2013-01-25 15:41:00,14.0,0.0,-100.00,NNE,13,6.0,11.0,54,0.00,,,0.00,132.000000,,2013-01-26 00:41:00,
2013-01-25 15:52:00,14.0,0.0,-100.00,NNE,13,6.0,11.0,54,0.00,,,0.00,132.000000,,2013-01-26 00:52:00,
2013-01-25 16:22:00,12.0,-2.0,-100.00,NNE,14,4.0,9.0,53,0.00,,,0.00,88.000000,,2013-01-26 01:22:00,
2013-01-25 16:31:00,12.0,-2.0,-100.00,NNE,14,4.0,9.0,53,0.00,,,0.00,88.000000,,2013-01-26 01:31:00,
2013-01-25 16:42:00,12.0,-2.0,-100.00,NNE,14,4.0,9.0,53,0.00,,,0.00,88.000000,,2013-01-26 01:42:00,
2013-01-25 16:52:00,12.0,-2.0,-100.00,NNE,14,4.0,9.0,53,0.00,,,0.00,88.000000,,2013-01-26 01:52:00,
2013-01-25 17:22:00,8.0,-3.0,-100.00,North,5,2.0,7.0,59,0.00,,,0.00,27.000000,,2013-01-26 02:22:00,
2013-01-25 17:32:00,8.0,-3.0,-100.00,North,5,2.0,7.0,59,0.00,,,0.00,27.000000,,2013-01-26 02:32:00,
2013-01-25 17:42:00,8.0,-3.0,-100.00,North,5,2.0,7.0,59,0.00,,,0.00,27.000000,,2013-01-26 02:42:00,
2013-01-25 17:52:00,8.0,-3.0,-100.00,North,5,2.0,7.0,59,0.00,,,0.00,27.000000,,2013-01-26 02:52:00,
2013-01-25 18:21:00,6.0,-5.0,-100.00,NNE,16,3.0,7.0,61,0.00,,,0.00,1.000000,,2013-01-26 03:21:00,
2013-01-25 18:31:00,6.0,-5.0,-100.00,NNE,16,3.0,7.0,61,0.00,,,0.00,1.000000,,2013-01-26 03:31:00,
2013-01-25 18:42:00,6.0,-5.0,-100.00,NNE,16,3.0,7.0,61,0.00,,,0.00,1.000000,,2013-01-26 03:42:00,
2013-01-25 18:51:00,6.0,-5.0,-100.00,NNE,16,3.0,7.0,61,0.00,,,0.00,1.000000,,2013-01-26 03:51:00,
2013-01-25 19:21:00,4.0,-7.0,-100.00,NNE,26,3.0,10.0,60,0.00,,,0.00,0.000000,,2013-01-26 04:21:00,
2013-01-25 19:32:00,4.0,-7.0,-100.00,NNE,26,3.0,10.0,60,0.00,,,0.00,0.000000,,2013-01-26 04:32:00,
2013-01-25 19:42:00,4.0,-7.0,-100.00,NNE,26,3.0,10.0,60,0.00,,,0.00,0.000000,,2013-01-26 04:42:00,
2013-01-25 19:52:00,4.0,-7.0,-100.00,NNE,26,3.0,10.0,60,0.00,,,0.00,0.000000,,2013-01-26 04:52:00,
2013-01-25 20:23:00,3.0,-7.0,-100.00,NE,38,4.0,7.0,61,0.00,,,0.00,0.000000,,2013-01-26 05:23:00,
2013-01-25 20:33:00,3.0,-7.0,-100.00,NE,38,4.0,7.0,61,0.00,,,0.00,0.000000,,2013-01-26 05:33:00,
2013-01-25 20:41:00,3.0,-7.0,-100.00,NE,38,4.0,7.0,61,0.00,,,0.00,0.000000,,2013-01-26 05:41:00,
2013-01-25 20:52:00,3.0,-7.0,-100.00,NE,38,4.0,7.0,61,0.00,,,0.00,0.000000,,2013-01-26 05:52:00,
2013-01-25 21:21:00,2.0,-8.0,-100.00,NNE,24,4.0,8.0,62,0.00,,,0.00,0.000000,,2013-01-26 06:21:00,
2013-01-25 21:31:00,2.0,-8.0,-100.00,NNE,24,4.0,8.0,62,0.00,,,0.00,0.000000,,2013-01-26 06:31:00,
2013-01-25 21:41:00,2.0,-8.0,-100.00,NNE,24,4.0,8.0,62,0.00,,,0.00,0.000000,,2013-01-26 06:41:00,
2013-01-25 21:51:00,2.0,-8.0,-100.00,NNE,24,4.0,8.0,62,0.00,,,0.00,0.000000,,2013-01-26 06:51:00,
2013-01-25 22:21:00,0.0,-10.0,-100.00,NE,39,3.0,9.0,63,0.00,,,0.00,0.000000,,2013-01-26 07:21:00,
2013-01-25 22:33:00,0.0,-10.0,-100.00,NE,39,3.0,9.0,63,0.00,,,0.00,0.000000,,2013-01-26 07:33:00,
2013-01-25 22:41:00,0.0,-10.0,-100.00,NE,39,3.0,9.0,63,0.00,,,0.00,0.000000,,2013-01-26 07:41:00,
2013-01-25 22:51:00,0.0,-10.0,-100.00,NE,39,3.0,9.0,63,0.00,,,0.00,0.000000,,2013-01-26 07:51:00,
2013-01-25 23:21:00,0.0,-12.0,-100.00,NNE,27,3.0,8.0,57,0.00,,,0.00,0.000000,,2013-01-26 08:21:00,
2013-01-25 23:31:00,0.0,-12.0,-100.00,NNE,27,3.0,8.0,57,0.00,,,0.00,0.000000,,2013-01-26 08:31:00,
2013-01-25 23:42:00,0.0,-12.0,-100.00,NNE,27,3.0,8.0,57,0.00,,,0.00,0.000000,,2013-01-26 08:42:00,
2013-01-25 23:53:00,0.0,-12.0,-100.00,NNE,27,3.0,8.0,57,0.00,,,0.00,0.000000,,2013-01-26 08:53:00,